Time;durP1;ratioP1;P1;durP2;ratioP2;P2;SDS_P1;SDS_P2;PMS_P1;PMS_P2;Temp;Humidity;BMP_temperature;BMP_pressure;BME280_temperature;BME280_humidity;BME280_pressure;Samples;Min_cycle;Max_cycle;Signal;HPM_P1;HPM_P2
2022/09/13 00:00:51;;;;;;;;;5.25;5.25;;;;;24.39;41.59;100434.44;5000788;28;45429;-62
2022/09/13 00:03:18;;;;;;;;;5.75;5.00;;;;;24.42;41.08;100441.41;5001041;28;45327;-62
2022/09/13 00:05:43;;;;;;;;;4.50;4.50;;;;;24.42;41.36;100444.09;5000780;28;45269;-62
2022/09/13 00:08:09;;;;;;;;;4.00;4.00;;;;;24.42;41.28;100436.88;4980210;28;45680;-62
2022/09/13 00:10:37;;;;;;;;;5.00;5.00;;;;;24.43;41.21;100440.44;4998540;28;46383;-62
2022/09/13 00:13:03;;;;;;;;;5.00;5.00;;;;;24.38;41.03;100426.47;5001045;28;45334;-62
2022/09/13 00:15:29;;;;;;;;;4.00;4.00;;;;;24.40;41.24;100433.47;5000927;28;45285;-63
2022/09/13 00:17:54;;;;;;;;;6.00;5.50;;;;;24.38;41.27;100431.84;5001045;28;45355;-62
2022/09/13 00:20:20;;;;;;;;;4.25;4.25;;;;;24.39;41.42;100442.50;5000350;28;46297;-62
2022/09/13 00:22:45;;;;;;;;;6.25;6.25;;;;;24.39;41.22;100439.81;4999488;28;45325;-62
2022/09/13 00:25:11;;;;;;;;;7.00;5.50;;;;;24.34;41.58;100442.84;5000753;28;45326;-62
2022/09/13 00:27:37;;;;;;;;;4.00;4.00;;;;;24.38;41.45;100447.94;4979816;28;46025;-62
2022/09/13 00:30:07;;;;;;;;;6.00;6.00;;;;;24.37;41.72;100443.59;4998840;28;45388;-62
2022/09/13 00:32:33;;;;;;;;;9.75;7.75;;;;;24.37;41.45;100447.09;4979207;28;45330;-62
2022/09/13 00:34:59;;;;;;;;;5.50;5.00;;;;;24.37;41.51;100446.25;4999240;28;45404;-62
2022/09/13 00:37:25;;;;;;;;;7.75;7.50;;;;;24.36;41.79;100439.19;5000642;28;45273;-62
2022/09/13 00:39:50;;;;;;;;;6.25;6.00;;;;;24.36;41.73;100447.22;5000272;28;46327;-63
2022/09/13 00:42:16;;;;;;;;;8.25;7.25;;;;;24.33;41.91;100435.75;5000348;28;45345;-62
2022/09/13 00:45:11;;;;;;;;;8.25;5.75;;;;;24.34;41.53;100425.88;4982745;28;45452;-63
2022/09/13 00:48:00;;;;;;;;;6.25;6.25;;;;;24.31;41.93;100416.25;5000213;28;45267;-62
2022/09/13 00:50:37;;;;;;;;;8.00;5.00;;;;;24.31;41.78;100418.06;5000022;28;46404;-62
2022/09/13 00:53:18;;;;;;;;;8.00;8.00;;;;;24.29;41.73;100420.03;5000298;28;45306;-62
2022/09/13 00:55:53;;;;;;;;;8.00;7.50;;;;;24.26;41.99;100417.56;5000250;28;45237;-62
2022/09/13 00:58:43;;;;;;;;;7.50;7.25;;;;;24.26;41.83;100418.41;5000193;28;45422;-63
2022/09/13 01:01:11;;;;;;;;;7.25;6.75;;;;;24.22;41.71;100418.78;5000061;28;46287;-63
2022/09/13 01:03:40;;;;;;;;;8.00;6.75;;;;;24.21;42.07;100412.53;4979880;28;45426;-62
2022/09/13 01:06:19;;;;;;;;;4.50;4.25;;;;;24.22;41.66;100419.63;5000121;28;45243;-62
2022/09/13 01:08:50;;;;;;;;;13.00;8.00;;;;;24.21;41.71;100417.06;5000043;28;45314;-62
2022/09/13 01:11:26;;;;;;;;;7.00;7.00;;;;;24.20;41.97;100413.53;4999032;28;45529;-62
2022/09/13 01:13:52;;;;;;;;;10.50;7.75;;;;;24.17;41.93;100403.00;4999745;28;45264;-62
2022/09/13 01:16:18;;;;;;;;;7.75;6.75;;;;;24.10;42.19;100386.53;4999311;28;45513;-62
2022/09/13 01:18:43;;;;;;;;;9.75;8.25;;;;;24.15;42.15;100389.72;4999662;28;45337;-62
2022/09/13 01:21:39;;;;;;;;;10.00;8.25;;;;;24.14;42.21;100384.47;4999656;28;45453;-62
2022/09/13 01:24:30;;;;;;;;;10.50;9.00;;;;;24.12;42.21;100386.41;4999859;28;45441;-62
2022/09/13 01:27:10;;;;;;;;;7.25;7.25;;;;;24.11;42.27;100387.38;4999759;28;45204;-62
2022/09/13 01:30:09;;;;;;;;;9.25;8.00;;;;;24.08;42.56;100388.47;4999504;28;45481;-62
2022/09/13 01:32:53;;;;;;;;;9.75;8.50;;;;;24.06;42.19;100389.56;4999455;28;46325;-62
2022/09/13 01:35:43;;;;;;;;;11.25;9.00;;;;;24.05;42.25;100396.78;4999276;28;45313;-62
2022/09/13 01:38:56;;;;;;;;;10.25;8.25;;;;;24.02;42.38;100392.50;4999749;28;45306;-62
2022/09/13 01:41:57;;;;;;;;;8.50;8.50;;;;;23.99;42.49;100383.81;4999587;28;45196;-62
2022/09/13 01:44:45;;;;;;;;;11.25;9.25;;;;;23.98;42.34;100380.25;4975988;28;46212;-62
2022/09/13 01:47:26;;;;;;;;;11.25;10.50;;;;;23.97;42.63;100375.03;4978673;28;45816;-62
2022/09/13 01:49:54;;;;;;;;;9.00;8.00;;;;;23.96;42.59;100376.84;4987889;28;45480;-62
2022/09/13 01:52:29;;;;;;;;;9.00;8.25;;;;;23.96;42.57;100376.84;4999400;28;45263;-62
2022/09/13 01:55:04;;;;;;;;;10.00;9.75;;;;;23.92;42.67;100371.84;4998779;28;46434;-62
2022/09/13 01:57:53;;;;;;;;;10.50;7.00;;;;;23.93;42.81;100369.03;4999257;28;45410;-62
2022/09/13 02:00:18;;;;;;;;;10.00;7.50;;;;;23.91;42.89;100360.25;4981800;28;45287;-62
2022/09/13 02:03:09;;;;;;;;;15.25;10.50;;;;;23.93;42.80;100357.44;4999281;28;45370;-62
2022/09/13 02:05:55;;;;;;;;;13.50;10.50;;;;;23.90;42.96;100361.19;4998945;28;46354;-62
2022/09/13 02:08:29;;;;;;;;;11.50;10.75;;;;;23.91;42.91;100357.56;4999422;28;45247;-62
2022/09/13 02:11:07;;;;;;;;;9.00;8.00;;;;;23.90;42.87;100349.59;4999037;28;45385;-62
2022/09/13 02:13:38;;;;;;;;;10.50;9.75;;;;;23.89;42.88;100354.13;4980882;28;45961;-62
2022/09/13 02:16:14;;;;;;;;;8.50;8.50;;;;;23.87;42.91;100353.38;4999162;28;45909;-62
2022/09/13 02:18:46;;;;;;;;;6.75;6.75;;;;;23.86;42.84;100352.53;4999036;28;45251;-62
2022/09/13 02:21:34;;;;;;;;;8.75;8.75;;;;;23.86;42.96;100355.19;4999053;28;45401;-62
2022/09/13 02:24:05;;;;;;;;;11.50;10.25;;;;;23.84;42.94;100340.19;4988145;28;45236;-62
2022/09/13 02:26:33;;;;;;;;;11.00;11.00;;;;;23.83;43.08;100343.84;4998877;28;45544;-62
2022/09/13 02:29:05;;;;;;;;;10.75;9.25;;;;;23.78;42.94;100341.50;4998977;28;45306;-62
2022/09/13 02:31:40;;;;;;;;;8.00;8.00;;;;;23.77;43.10;100350.56;4998885;28;45348;-62
2022/09/13 02:34:21;;;;;;;;;10.75;9.75;;;;;23.75;42.75;100347.13;4998670;28;45686;-62
2022/09/13 02:36:48;;;;;;;;;10.25;10.25;;;;;23.73;43.16;100338.31;4998678;28;45415;-62
2022/09/13 02:39:21;;;;;;;;;8.00;6.25;;;;;23.72;43.16;100333.09;4998856;28;45453;-62
2022/09/13 02:41:59;;;;;;;;;6.75;6.00;;;;;23.68;43.42;100330.66;4999213;28;45271;-62
2022/09/13 02:44:35;;;;;;;;;8.50;6.25;;;;;23.66;43.17;100337.06;4998663;28;45307;-62
2022/09/13 02:47:37;;;;;;;;;7.00;6.00;;;;;23.63;43.34;100334.63;5001762;28;46119;-62
2022/09/13 02:50:15;;;;;;;;;8.00;5.25;;;;;23.60;43.43;100332.19;5001904;28;45227;-62
2022/09/13 02:52:52;;;;;;;;;7.00;5.25;;;;;23.58;43.01;100318.03;5002184;28;45497;-62
2022/09/13 02:55:42;;;;;;;;;5.75;5.00;;;;;23.54;43.29;100318.25;4981144;28;45843;-62
2022/09/13 02:58:26;;;;;;;;;5.75;4.75;;;;;23.52;43.29;100314.84;4991614;28;45414;-62
2022/09/13 03:00:51;;;;;;;;;5.75;5.00;;;;;23.50;43.74;100318.63;5001892;28;45312;-63
2022/09/13 03:03:17;;;;;;;;;6.00;5.25;;;;;23.47;43.51;100327.75;5002203;28;45466;-62
2022/09/13 03:05:43;;;;;;;;;5.00;5.00;;;;;23.46;43.39;100325.16;5001611;28;45824;-62
2022/09/13 03:08:12;;;;;;;;;3.00;3.00;;;;;23.37;43.52;100314.19;5001923;28;45345;-62
2022/09/13 03:11:09;;;;;;;;;5.00;4.50;;;;;23.43;43.39;100328.94;5001647;28;45326;-62
2022/09/13 03:14:03;;;;;;;;;4.25;4.25;;;;;23.40;43.59;100313.09;5001971;28;45448;-62
2022/09/13 03:16:47;;;;;;;;;4.75;4.00;;;;;23.37;43.71;100314.19;5001928;28;45201;-62
2022/09/13 03:19:24;;;;;;;;;4.00;4.00;;;;;23.35;43.73;100310.75;5001832;28;45519;-62
2022/09/13 03:21:53;;;;;;;;;4.50;4.50;;;;;23.34;43.77;100306.34;4983840;28;45871;-62
2022/09/13 03:25:00;;;;;;;;;4.00;4.00;;;;;23.33;43.52;100312.72;5001765;28;45436;-62
2022/09/13 03:27:53;;;;;;;;;3.75;3.50;;;;;23.31;43.80;100311.97;4993210;28;46256;-62
2022/09/13 03:30:18;;;;;;;;;6.50;5.00;;;;;23.30;43.68;100302.19;5001698;28;47156;-62
2022/09/13 03:33:05;;;;;;;;;5.75;5.00;;;;;23.30;43.76;100309.41;4983649;28;45395;-62
2022/09/13 03:35:38;;;;;;;;;5.75;5.75;;;;;23.27;43.94;100309.59;5001628;28;45381;-62
2022/09/13 03:38:03;;;;;;;;;5.00;5.00;;;;;23.28;43.79;100314.88;5001444;28;45366;-62
2022/09/13 03:40:31;;;;;;;;;4.00;4.00;;;;;23.27;43.71;100315.84;5001369;28;46323;-62
2022/09/13 03:43:24;;;;;;;;;5.00;5.00;;;;;23.25;43.89;100320.44;5001258;28;45485;-62
2022/09/13 03:45:54;;;;;;;;;6.00;6.00;;;;;23.26;43.75;100321.28;5001309;28;45365;-62
2022/09/13 03:48:22;;;;;;;;;5.75;4.25;;;;;23.24;43.74;100316.06;5001439;28;45301;-67
2022/09/13 03:50:48;;;;;;;;;5.50;5.50;;;;;23.24;43.99;100310.69;4983283;28;46194;-63
2022/09/13 03:53:22;;;;;;;;;5.50;4.75;;;;;23.23;43.83;100314.34;5001129;28;45297;-63
2022/09/13 03:55:47;;;;;;;;;4.00;4.00;;;;;23.23;44.11;100300.09;4984101;28;45292;-62
2022/09/13 03:58:18;;;;;;;;;3.00;3.00;;;;;23.24;43.97;100296.44;5000932;28;45263;-63
2022/09/13 04:00:44;;;;;;;;;4.00;4.00;;;;;23.23;44.11;100292.06;5001034;28;46761;-63
2022/09/13 04:03:10;;;;;;;;;4.25;4.00;;;;;23.21;44.05;100278.78;5001023;28;45264;-62
2022/09/13 04:05:35;;;;;;;;;4.25;3.00;;;;;23.21;44.19;100294.84;5000834;28;45240;-63
2022/09/13 04:08:03;;;;;;;;;5.00;5.00;;;;;23.22;44.26;100301.94;5001205;28;45423;-63
2022/09/13 04:10:30;;;;;;;;;4.50;4.50;;;;;23.21;44.36;100306.41;5000782;28;45441;-63
2022/09/13 04:12:56;;;;;;;;;3.00;3.00;;;;;23.20;44.19;100310.06;4979777;28;45350;-63
2022/09/13 04:15:21;;;;;;;;;3.75;3.75;;;;;23.20;44.02;100318.09;4998866;28;45403;-63
2022/09/13 04:17:47;;;;;;;;;6.00;5.50;;;;;23.20;44.17;100320.78;5001170;28;45401;-62
2022/09/13 04:20:12;;;;;;;;;4.50;4.50;;;;;23.19;44.45;100312.88;5000492;28;46188;-62
2022/09/13 04:22:38;;;;;;;;;3.75;3.75;;;;;23.18;44.36;100317.38;4982883;28;45350;-63
2022/09/13 04:25:04;;;;;;;;;4.00;4.00;;;;;23.18;44.41;100316.50;5000801;28;45464;-62
2022/09/13 04:27:29;;;;;;;;;4.25;4.25;;;;;23.16;44.43;100326.50;5000742;28;45213;-63
2022/09/13 04:29:55;;;;;;;;;4.25;4.25;;;;;23.16;44.34;100331.88;5000299;28;46145;-62
2022/09/13 04:32:20;;;;;;;;;4.00;4.00;;;;;23.16;44.58;100332.72;5000472;28;45378;-62
2022/09/13 04:34:46;;;;;;;;;4.25;3.75;;;;;23.14;44.25;100331.91;5000410;28;45201;-62
2022/09/13 04:37:12;;;;;;;;;4.50;4.50;;;;;23.15;44.42;100327.44;4992403;28;45215;-62
2022/09/13 04:39:37;;;;;;;;;6.00;5.00;;;;;23.16;44.31;100323.81;5000146;28;45614;-63
2022/09/13 04:42:03;;;;;;;;;2.50;2.50;;;;;23.15;44.34;100316.72;5000464;28;45282;-62
2022/09/13 04:44:29;;;;;;;;;5.50;4.25;;;;;23.15;44.40;100311.34;5000234;28;45323;-63
2022/09/13 04:46:55;;;;;;;;;3.00;3.00;;;;;23.15;44.59;100320.28;5000285;28;45293;-62
2022/09/13 04:49:20;;;;;;;;;3.50;3.50;;;;;23.12;44.41;100312.44;4999837;28;46307;-62
2022/09/13 04:51:46;;;;;;;;;5.75;5.25;;;;;23.14;44.77;100315.00;5000168;28;45354;-62
2022/09/13 04:54:12;;;;;;;;;4.50;4.00;;;;;23.13;44.62;100315.97;5000205;28;45521;-62
2022/09/13 04:56:37;;;;;;;;;6.00;5.00;;;;;23.12;44.59;100331.19;5000132;28;45369;-62
2022/09/13 04:59:03;;;;;;;;;4.25;4.25;;;;;23.12;44.58;100333.00;4999913;28;46196;-62
2022/09/13 05:01:29;;;;;;;;;8.50;6.00;;;;;23.12;44.80;100335.69;5000255;28;45295;-64
2022/09/13 05:03:54;;;;;;;;;5.25;5.00;;;;;23.12;44.68;100330.31;4992504;28;45244;-62
2022/09/13 05:06:21;;;;;;;;;4.00;4.00;;;;;23.11;44.81;100325.97;4990413;28;45240;-62
2022/09/13 05:08:53;;;;;;;;;5.25;4.50;;;;;23.11;44.60;100328.63;4998225;28;46264;-63
2022/09/13 05:11:20;;;;;;;;;4.00;4.00;;;;;23.09;44.72;100320.69;4999834;28;45259;-62
2022/09/13 05:13:51;;;;;;;;;5.75;5.75;;;;;23.08;44.74;100310.97;4999883;28;45413;-64
2022/09/13 05:16:17;;;;;;;;;4.75;4.00;;;;;23.09;44.72;100307.28;4978960;28;45341;-62
2022/09/13 05:18:42;;;;;;;;;5.50;4.50;;;;;23.08;45.11;100312.78;4998413;28;45389;-62
2022/09/13 05:21:08;;;;;;;;;20.75;20.00;;;;;23.08;44.68;100324.38;4999548;28;45378;-62
2022/09/13 05:23:34;;;;;;;;;4.50;4.00;;;;;23.04;44.94;100326.41;4999932;28;45473;-62
2022/09/13 05:26:02;;;;;;;;;6.00;6.00;;;;;23.06;44.82;100328.97;4999688;28;45256;-62
2022/09/13 05:28:29;;;;;;;;;5.00;5.00;;;;;23.06;44.91;100328.97;4999346;28;46219;-62
2022/09/13 05:31:06;;;;;;;;;5.00;4.00;;;;;23.04;44.85;100331.78;4999526;28;45346;-62
2022/09/13 05:33:36;;;;;;;;;5.00;5.00;;;;;23.04;44.77;100330.91;4999443;28;45283;-62
2022/09/13 05:36:03;;;;;;;;;5.25;5.25;;;;;23.02;44.89;100339.03;4999049;28;45390;-62
2022/09/13 05:38:29;;;;;;;;;6.25;4.50;;;;;22.98;45.27;100325.97;4999712;28;46357;-62
2022/09/13 05:40:59;;;;;;;;;3.50;3.00;;;;;23.00;44.93;100330.25;4999407;28;45350;-62
2022/09/13 05:43:26;;;;;;;;;6.25;4.00;;;;;23.00;44.93;100340.13;4999499;28;45269;-62
2022/09/13 05:46:01;;;;;;;;;5.00;5.00;;;;;22.98;45.12;100334.88;4999361;28;45234;-62
2022/09/13 05:48:28;;;;;;;;;5.75;4.50;;;;;22.98;44.91;100328.66;4999180;28;46241;-62
2022/09/13 05:50:53;;;;;;;;;4.75;4.00;;;;;22.97;44.87;100329.66;4999094;28;45495;-62
2022/09/13 05:53:18;;;;;;;;;5.25;4.00;;;;;22.98;45.31;100326.84;4978497;28;45396;-63
2022/09/13 05:55:44;;;;;;;;;6.25;4.25;;;;;22.98;44.84;100317.94;4995501;28;49596;-63
2022/09/13 05:58:10;;;;;;;;;6.75;6.75;;;;;22.98;45.01;100321.50;4999198;28;46077;-63
2022/09/13 06:00:35;;;;;;;;;8.75;6.25;;;;;22.99;44.94;100312.50;4980725;28;45364;-63
2022/09/13 06:03:00;;;;;;;;;5.75;4.75;;;;;22.97;45.03;100311.75;4999187;28;45330;-63
2022/09/13 06:05:26;;;;;;;;;6.25;6.00;;;;;22.99;45.38;100309.81;4999118;28;45335;-63
2022/09/13 06:07:51;;;;;;;;;7.00;5.50;;;;;23.00;45.17;100316.03;4999134;28;45987;-63
2022/09/13 06:10:16;;;;;;;;;5.00;5.00;;;;;23.00;44.92;100314.19;4998919;28;45278;-63
2022/09/13 06:12:42;;;;;;;;;7.50;5.25;;;;;22.99;44.88;100316.97;4999063;28;45948;-63
2022/09/13 06:15:08;;;;;;;;;6.75;5.75;;;;;22.99;45.18;100316.97;4981452;28;45430;-64
2022/09/13 06:17:33;;;;;;;;;7.75;5.75;;;;;23.00;45.00;100318.69;4998460;28;45696;-63
2022/09/13 06:19:58;;;;;;;;;9.50;8.75;;;;;23.00;45.24;100316.03;5000211;28;45440;-63
2022/09/13 06:22:24;;;;;;;;;4.00;4.00;;;;;22.93;45.02;100307.59;5002465;28;45180;-63
2022/09/13 06:24:49;;;;;;;;;6.50;6.50;;;;;22.99;45.58;100316.97;4983673;28;45639;-63
2022/09/13 06:27:14;;;;;;;;;6.25;6.25;;;;;22.99;45.28;100311.63;5002326;28;45355;-63
2022/09/13 06:29:40;;;;;;;;;7.00;5.00;;;;;23.02;45.49;100308.72;5002560;28;45403;-62
2022/09/13 06:32:05;;;;;;;;;7.00;6.00;;;;;23.01;45.45;100297.16;4984596;28;45251;-62
2022/09/13 06:34:30;;;;;;;;;9.25;8.00;;;;;23.03;45.10;100292.53;5001734;28;45175;-62
2022/09/13 06:36:56;;;;;;;;;31.50;25.75;;;;;23.02;45.16;100284.63;5002020;28;46130;-62
2022/09/13 06:39:21;;;;;;;;;7.50;7.50;;;;;23.07;45.21;100278.91;5002070;28;45242;-62
2022/09/13 06:41:47;;;;;;;;;7.25;7.25;;;;;23.07;45.52;100273.53;5002217;28;45529;-62
2022/09/13 06:44:13;;;;;;;;;9.50;8.50;;;;;23.08;45.56;100267.22;5001894;28;45111;-62
2022/09/13 06:46:38;;;;;;;;;8.00;6.50;;;;;23.07;45.31;100266.38;5002201;28;46408;-62
2022/09/13 06:49:05;;;;;;;;;8.00;7.75;;;;;23.11;45.27;100265.16;5001620;28;50472;-62
2022/09/13 06:51:32;;;;;;;;;5.00;5.00;;;;;23.13;45.33;100265.06;5002086;28;45318;-62
2022/09/13 06:53:57;;;;;;;;;6.25;6.00;;;;;23.15;45.56;100268.47;5001851;28;45488;-62
2022/09/13 06:56:29;;;;;;;;;8.75;7.50;;;;;23.16;45.65;100263.03;5002038;28;46291;-62
2022/09/13 06:58:57;;;;;;;;;9.50;5.00;;;;;23.19;45.64;100269.97;5001772;28;45315;-62
2022/09/13 07:01:25;;;;;;;;;6.75;6.50;;;;;23.19;45.15;100248.53;5001825;28;45331;-62
2022/09/13 07:03:53;;;;;;;;;8.50;6.00;;;;;23.22;45.44;100242.97;5001616;28;45457;-62
2022/09/13 07:06:27;;;;;;;;;7.00;6.00;;;;;23.23;45.56;100230.41;5000547;28;45345;-62
2022/09/13 07:08:53;;;;;;;;;5.25;5.25;;;;;23.25;45.74;100225.81;5001625;28;45242;-62
2022/09/13 07:11:22;;;;;;;;;5.25;5.25;;;;;23.26;45.62;100222.13;5001649;28;45524;-62
2022/09/13 07:13:49;;;;;;;;;8.00;6.75;;;;;23.27;45.63;100231.88;5001295;28;45297;-62
2022/09/13 07:16:16;;;;;;;;;7.00;6.25;;;;;23.28;45.63;100230.91;5001506;28;46074;-62
2022/09/13 07:18:42;;;;;;;;;7.50;6.25;;;;;23.29;45.99;100230.78;4980602;28;45761;-62
2022/09/13 07:21:09;;;;;;;;;5.50;5.50;;;;;23.31;45.52;100234.22;4993119;28;45356;-62
2022/09/13 07:23:37;;;;;;;;;9.00;6.00;;;;;23.32;45.40;100229.72;5001557;28;45271;-62
2022/09/13 07:26:04;;;;;;;;;8.00;5.00;;;;;23.35;45.61;100235.69;5001425;28;46379;-62
2022/09/13 07:28:37;;;;;;;;;6.00;6.00;;;;;23.35;45.74;100235.69;5001060;28;45384;-62
2022/09/13 07:31:05;;;;;;;;;5.00;5.00;;;;;23.41;45.79;100233.50;5000799;28;45278;-62
2022/09/13 07:33:30;;;;;;;;;7.00;5.75;;;;;23.43;45.90;100243.16;4980183;28;45256;-62
2022/09/13 07:35:58;;;;;;;;;6.00;5.75;;;;;23.47;45.72;100236.59;4994925;28;45289;-62
2022/09/13 07:38:24;;;;;;;;;8.25;5.75;;;;;23.50;45.53;100235.50;5001382;28;45282;-62
2022/09/13 07:40:57;;;;;;;;;8.00;6.50;;;;;23.55;45.92;100233.31;5001439;28;45356;-62
2022/09/13 07:43:23;;;;;;;;;5.75;5.00;;;;;23.58;45.71;100233.06;5001230;28;45344;-62
2022/09/13 07:45:56;;;;;;;;;9.50;7.75;;;;;23.61;45.81;100232.84;5000945;28;45370;-62
2022/09/13 07:48:22;;;;;;;;;8.25;6.00;;;;;23.65;45.81;100237.00;5001154;28;45291;-62
2022/09/13 07:51:15;;;;;;;;;5.00;4.00;;;;;23.69;45.70;100240.31;4983505;28;45457;-62
2022/09/13 07:53:42;;;;;;;;;6.00;6.00;;;;;23.72;45.85;100236.53;4980316;28;45268;-62
2022/09/13 07:56:14;;;;;;;;;5.00;4.50;;;;;23.75;46.06;100247.00;5000924;28;46169;-62
2022/09/13 07:58:42;;;;;;;;;6.25;4.00;;;;;23.78;45.71;100247.63;5000744;28;45253;-62
2022/09/13 08:01:20;;;;;;;;;5.00;5.00;;;;;23.81;45.74;100258.13;5001277;28;45292;-62
2022/09/13 08:03:51;;;;;;;;;7.00;6.00;;;;;23.85;45.80;100258.75;5000763;28;45430;-62
2022/09/13 08:06:17;;;;;;;;;5.50;4.50;;;;;23.86;45.72;100253.25;5000557;28;45269;-63
2022/09/13 08:08:42;;;;;;;;;5.75;5.00;;;;;23.91;45.46;100249.34;5000762;28;45247;-63
2022/09/13 08:11:14;;;;;;;;;5.25;5.25;;;;;23.93;45.96;100256.34;5001077;28;46464;-63
2022/09/13 08:13:40;;;;;;;;;6.00;4.75;;;;;23.98;45.67;100251.47;5000841;28;45220;-63
2022/09/13 08:16:05;;;;;;;;;6.00;4.50;;;;;23.98;45.63;100256.81;5000608;28;48236;-63
2022/09/13 08:18:32;;;;;;;;;4.50;4.50;;;;;24.02;45.70;100250.28;5000671;28;45204;-63
2022/09/13 08:20:58;;;;;;;;;4.75;4.75;;;;;24.08;45.49;100256.13;5000657;28;45596;-63
2022/09/13 08:23:24;;;;;;;;;4.00;4.00;;;;;24.11;45.51;100251.38;4982240;28;45387;-63
2022/09/13 08:25:50;;;;;;;;;4.00;4.00;;;;;24.13;45.65;100248.56;5000535;28;46663;-63
2022/09/13 08:28:17;;;;;;;;;8.00;4.00;;;;;24.16;45.69;100248.31;4979343;28;46062;-63
2022/09/13 08:30:43;;;;;;;;;9.25;5.50;;;;;24.19;45.54;100256.13;4983125;28;45383;-63
2022/09/13 08:33:10;;;;;;;;;2.50;2.25;;;;;24.21;45.59;100256.84;5000183;28;45565;-63
2022/09/13 08:35:36;;;;;;;;;4.75;4.50;;;;;24.24;45.22;100251.25;4986754;28;47750;-63
2022/09/13 08:38:03;;;;;;;;;5.00;2.75;;;;;24.25;45.36;100252.97;4985351;28;46306;-63
2022/09/13 08:40:37;;;;;;;;;5.25;5.25;;;;;24.29;45.39;100249.03;5000631;28;45357;-63
2022/09/13 08:43:21;;;;;;;;;5.00;5.00;;;;;24.31;45.44;100252.47;4978008;28;45496;-63
2022/09/13 08:46:00;;;;;;;;;3.00;3.00;;;;;24.32;45.19;100262.22;4995019;28;46320;-63
2022/09/13 08:48:33;;;;;;;;;3.75;3.75;;;;;24.36;45.87;100280.78;5000257;28;45345;-63
2022/09/13 08:51:04;;;;;;;;;3.00;3.00;;;;;24.41;45.58;100281.25;4999985;28;45300;-63
2022/09/13 08:53:31;;;;;;;;;3.50;3.00;;;;;24.43;45.74;100287.38;5000043;28;45365;-63
2022/09/13 08:56:12;;;;;;;;;2.25;2.25;;;;;24.45;45.17;100288.97;4999626;28;45416;-63
2022/09/13 08:58:56;;;;;;;;;9.00;7.00;;;;;24.48;45.21;100283.31;4999924;28;45363;-63
2022/09/13 09:01:27;;;;;;;;;10.50;7.50;;;;;24.51;45.40;100287.59;4979167;28;45410;-63
2022/09/13 09:04:21;;;;;;;;;5.00;5.00;;;;;24.53;45.81;100288.34;4996542;28;45461;-63
2022/09/13 09:06:47;;;;;;;;;5.00;5.00;;;;;24.57;45.36;100286.25;4999922;28;47182;-63
2022/09/13 09:09:17;;;;;;;;;5.00;5.00;;;;;24.60;45.55;100292.25;4999989;28;45421;-63
2022/09/13 09:11:53;;;;;;;;;6.75;4.00;;;;;24.64;45.32;100300.88;5000014;28;45354;-63
2022/09/13 09:14:40;;;;;;;;;5.75;4.50;;;;;24.69;45.48;100295.19;4999844;28;45332;-63
2022/09/13 09:17:21;;;;;;;;;6.50;6.00;;;;;24.74;45.62;100301.91;4999736;28;46029;-63
2022/09/13 09:19:57;;;;;;;;;6.00;6.00;;;;;24.76;45.24;100305.31;4999476;28;45358;-63
2022/09/13 09:22:31;;;;;;;;;6.50;5.00;;;;;24.82;45.94;100310.19;4999674;28;45520;-63
2022/09/13 09:24:57;;;;;;;;;4.00;4.00;;;;;24.87;45.54;100300.88;4999716;28;45342;-63
2022/09/13 09:27:22;;;;;;;;;7.25;6.00;;;;;24.92;45.57;100302.22;4999075;28;45355;-63
2022/09/13 09:29:52;;;;;;;;;4.75;4.25;;;;;24.94;45.39;100296.72;4999571;28;45285;-63
2022/09/13 09:32:38;;;;;;;;;4.75;4.00;;;;;25.02;45.34;100309.53;4999675;28;45326;-63
2022/09/13 09:35:35;;;;;;;;;6.00;4.25;;;;;25.07;45.40;100318.06;4999299;28;45423;-63
2022/09/13 09:38:30;;;;;;;;;5.75;4.00;;;;;25.11;45.79;100325.75;4996195;28;45416;-63
2022/09/13 09:41:05;;;;;;;;;7.00;4.75;;;;;25.18;45.96;100320.72;4981939;28;45349;-63
2022/09/13 09:43:55;;;;;;;;;5.25;5.25;;;;;25.25;45.71;100326.47;4978604;28;45348;-63
2022/09/13 09:46:27;;;;;;;;;6.50;6.50;;;;;25.29;45.97;100331.44;4998809;28;45397;-63
2022/09/13 09:48:58;;;;;;;;;8.00;6.00;;;;;25.35;45.53;100327.41;4999260;28;46361;-63
2022/09/13 09:51:27;;;;;;;;;5.00;4.50;;;;;25.38;45.23;100326.31;4999557;28;45240;-63
2022/09/13 09:54:00;;;;;;;;;8.25;8.25;;;;;25.42;44.94;100328.63;4999417;28;45362;-63
2022/09/13 09:56:30;;;;;;;;;6.75;6.50;;;;;25.45;45.27;100332.91;5003049;28;45282;-63
2022/09/13 09:58:56;;;;;;;;;7.75;7.00;;;;;25.46;45.39;100334.63;4984481;28;46256;-63
2022/09/13 10:01:31;;;;;;;;;5.75;5.00;;;;;25.49;44.94;100338.88;5003034;28;45339;-63
2022/09/13 10:04:17;;;;;;;;;5.50;5.00;;;;;25.45;45.47;100333.75;5002960;28;45208;-63
2022/09/13 10:06:44;;;;;;;;;4.00;4.00;;;;;25.50;45.43;100335.19;4982301;28;45507;-63
2022/09/13 10:09:12;;;;;;;;;5.00;5.00;;;;;25.51;45.46;100329.69;5002750;28;46249;-64
2022/09/13 10:11:37;;;;;;;;;7.50;5.50;;;;;25.51;45.34;100321.63;5002621;28;45347;-63
2022/09/13 10:14:03;;;;;;;;;5.25;3.00;;;;;25.53;44.74;100319.66;5002706;28;45346;-63
2022/09/13 10:16:29;;;;;;;;;6.75;6.75;;;;;25.56;45.03;100322.09;5002599;28;45450;-63
2022/09/13 10:19:23;;;;;;;;;5.75;5.00;;;;;25.58;44.78;100327.34;5002705;28;45180;-63
2022/09/13 10:22:04;;;;;;;;;6.00;6.00;;;;;25.63;44.94;100327.81;5002489;28;45470;-65
2022/09/13 10:24:30;;;;;;;;;4.00;4.00;;;;;25.69;45.32;100334.50;5002619;28;45390;-63
2022/09/13 10:26:58;;;;;;;;;6.25;5.25;;;;;25.69;45.25;100324.59;5002371;28;45474;-63
2022/09/13 10:29:26;;;;;;;;;5.00;4.50;;;;;25.76;44.69;100322.22;5002197;28;46364;-62
2022/09/13 10:31:52;;;;;;;;;6.25;5.50;;;;;25.78;45.02;100317.59;5002319;28;45274;-63
2022/09/13 10:34:28;;;;;;;;;5.75;5.75;;;;;25.80;44.71;100316.47;5002008;28;45489;-63
2022/09/13 10:37:03;;;;;;;;;6.00;4.50;;;;;25.81;45.27;100301.19;4994156;28;45252;-63
2022/09/13 10:39:35;;;;;;;;;9.00;7.00;;;;;25.85;44.57;100315.22;4983172;28;47934;-64
2022/09/13 10:42:09;;;;;;;;;7.75;6.00;;;;;25.85;45.00;100310.69;4981115;28;45411;-64
2022/09/13 10:44:46;;;;;;;;;4.75;4.75;;;;;25.88;45.08;100314.97;5000197;28;45226;-64
2022/09/13 10:47:21;;;;;;;;;6.00;5.25;;;;;25.91;44.93;100312.88;4981055;28;45305;-63
2022/09/13 10:49:51;;;;;;;;;6.00;5.75;;;;;25.92;44.81;100309.19;4989182;28;46467;-65
2022/09/13 10:52:26;;;;;;;;;5.00;5.00;;;;;25.98;45.02;100307.81;5001924;28;45345;-64
2022/09/13 10:54:52;;;;;;;;;7.25;4.75;;;;;25.99;44.99;100298.75;5002054;28;45309;-63
2022/09/13 10:57:36;;;;;;;;;6.25;5.00;;;;;26.05;44.27;100297.34;5001699;28;45340;-63
2022/09/13 11:00:04;;;;;;;;;6.25;4.50;;;;;26.07;44.99;100292.72;5001833;28;46161;-63
2022/09/13 11:02:45;;;;;;;;;5.00;5.00;;;;;26.14;44.73;100293.91;4984101;28;45272;-63
2022/09/13 11:05:26;;;;;;;;;11.50;6.00;;;;;26.20;44.72;100292.50;5001909;28;45320;-63
2022/09/13 11:08:07;;;;;;;;;6.00;6.00;;;;;26.25;44.38;100283.03;5001368;28;45526;-63
2022/09/13 11:10:47;;;;;;;;;5.25;4.50;;;;;26.32;44.48;100293.28;5001606;28;45554;-63
2022/09/13 11:13:36;;;;;;;;;5.25;5.25;;;;;26.38;44.68;100284.66;5001724;28;45374;-63
2022/09/13 11:16:31;;;;;;;;;4.00;4.00;;;;;26.44;44.67;100279.56;4974434;28;45556;-63
2022/09/13 11:19:05;;;;;;;;;5.00;4.50;;;;;26.51;44.73;100274.47;4978435;28;45344;-64
2022/09/13 11:21:58;;;;;;;;;3.50;3.50;;;;;26.57;44.63;100273.09;5001221;28;46391;-63
2022/09/13 11:24:26;;;;;;;;;3.75;3.75;;;;;26.64;44.37;100276.97;5001507;28;45319;-63
2022/09/13 11:27:09;;;;;;;;;4.50;4.50;;;;;26.72;44.39;100273.56;5001452;28;45508;-64
2022/09/13 11:29:51;;;;;;;;;3.25;3.25;;;;;26.82;44.58;100271.78;4983855;28;45512;-63
2022/09/13 11:32:52;;;;;;;;;7.25;5.50;;;;;26.97;44.73;100261.44;5001179;28;46399;-63
2022/09/13 11:35:36;;;;;;;;;5.50;5.50;;;;;27.10;44.81;100266.56;5000307;28;45364;-63
2022/09/13 11:38:23;;;;;;;;;6.00;5.00;;;;;27.22;43.77;100265.44;5001483;28;45251;-63
2022/09/13 11:41:12;;;;;;;;;5.00;5.00;;;;;27.32;44.45;100259.19;5001157;28;45553;-64
2022/09/13 11:44:01;;;;;;;;;6.25;5.00;;;;;27.39;43.71;100261.19;5001081;28;45328;-63
2022/09/13 11:46:32;;;;;;;;;4.25;4.25;;;;;27.46;44.05;100269.59;4995472;28;45275;-63
2022/09/13 11:49:19;;;;;;;;;5.75;4.50;;;;;27.53;43.94;100269.84;5001063;28;45268;-63